sensor_id;sensor_type;location;lat;lon;timestamp;temperature;humidity
44037;DHT22;62488;-37.670;-63.532;2023-01-13T00:01:25;22.80;45.60
44037;DHT22;62488;-37.670;-63.532;2023-01-13T00:03:52;22.70;45.20
44037;DHT22;62488;-37.670;-63.532;2023-01-13T00:06:21;22.60;45.40
44037;DHT22;62488;-37.670;-63.532;2023-01-13T00:08:51;22.50;45.50
44037;DHT22;62488;-37.670;-63.532;2023-01-13T00:11:19;22.40;46.20
44037;DHT22;62488;-37.670;-63.532;2023-01-13T00:13:46;22.30;47.00
44037;DHT22;62488;-37.670;-63.532;2023-01-13T00:16:16;22.20;47.40
44037;DHT22;62488;-37.670;-63.532;2023-01-13T00:18:43;22.00;47.50
44037;DHT22;62488;-37.670;-63.532;2023-01-13T00:21:16;21.90;48.00
44037;DHT22;62488;-37.670;-63.532;2023-01-13T00:23:44;21.80;47.70
44037;DHT22;62488;-37.670;-63.532;2023-01-13T00:26:45;21.70;47.90
44037;DHT22;62488;-37.670;-63.532;2023-01-13T00:29:05;21.80;48.50
44037;DHT22;62488;-37.670;-63.532;2023-01-13T00:31:32;21.70;47.70
44037;DHT22;62488;-37.670;-63.532;2023-01-13T00:34:00;21.70;48.00
44037;DHT22;62488;-37.670;-63.532;2023-01-13T00:36:28;21.50;48.80
44037;DHT22;62488;-37.670;-63.532;2023-01-13T00:38:56;21.50;48.70
44037;DHT22;62488;-37.670;-63.532;2023-01-13T00:41:24;21.40;49.40
44037;DHT22;62488;-37.670;-63.532;2023-01-13T00:43:52;21.40;49.00
44037;DHT22;62488;-37.670;-63.532;2023-01-13T00:46:20;21.30;49.10
44037;DHT22;62488;-37.670;-63.532;2023-01-13T00:48:47;21.30;48.70
44037;DHT22;62488;-37.670;-63.532;2023-01-13T00:51:17;21.30;49.40
44037;DHT22;62488;-37.670;-63.532;2023-01-13T00:53:47;21.20;49.40
44037;DHT22;62488;-37.670;-63.532;2023-01-13T00:56:17;21.20;49.30
44037;DHT22;62488;-37.670;-63.532;2023-01-13T00:58:46;21.20;49.00
44037;DHT22;62488;-37.670;-63.532;2023-01-13T01:01:16;21.30;49.30
44037;DHT22;62488;-37.670;-63.532;2023-01-13T01:03:43;21.20;49.20
44037;DHT22;62488;-37.670;-63.532;2023-01-13T01:06:17;21.20;49.10
44037;DHT22;62488;-37.670;-63.532;2023-01-13T01:08:45;21.10;49.60
44037;DHT22;62488;-37.670;-63.532;2023-01-13T01:11:20;21.00;50.00
44037;DHT22;62488;-37.670;-63.532;2023-01-13T01:13:48;21.00;50.10
44037;DHT22;62488;-37.670;-63.532;2023-01-13T01:16:19;21.00;50.30
44037;DHT22;62488;-37.670;-63.532;2023-01-13T01:18:51;20.90;50.60
44037;DHT22;62488;-37.670;-63.532;2023-01-13T01:21:18;20.70;51.40
44037;DHT22;62488;-37.670;-63.532;2023-01-13T01:23:46;20.50;51.90
44037;DHT22;62488;-37.670;-63.532;2023-01-13T01:26:15;20.40;52.10
44037;DHT22;62488;-37.670;-63.532;2023-01-13T01:28:43;20.30;52.40
44037;DHT22;62488;-37.670;-63.532;2023-01-13T01:31:17;20.30;52.40
44037;DHT22;62488;-37.670;-63.532;2023-01-13T01:33:44;20.50;51.20
44037;DHT22;62488;-37.670;-63.532;2023-01-13T01:36:16;20.70;50.60
44037;DHT22;62488;-37.670;-63.532;2023-01-13T01:38:43;20.60;50.70
44037;DHT22;62488;-37.670;-63.532;2023-01-13T01:41:22;20.50;51.70
44037;DHT22;62488;-37.670;-63.532;2023-01-13T01:44:01;20.30;51.90
44037;DHT22;62488;-37.670;-63.532;2023-01-13T01:46:41;20.10;52.50
44037;DHT22;62488;-37.670;-63.532;2023-01-13T01:54:54;19.70;54.20
44037;DHT22;62488;-37.670;-63.532;2023-01-13T01:57:38;19.50;55.10
44037;DHT22;62488;-37.670;-63.532;2023-01-13T02:00:08;19.40;55.60
44037;DHT22;62488;-37.670;-63.532;2023-01-13T02:02:36;19.30;56.10
44037;DHT22;62488;-37.670;-63.532;2023-01-13T02:05:03;19.20;56.90
44037;DHT22;62488;-37.670;-63.532;2023-01-13T02:07:32;19.10;57.20
44037;DHT22;62488;-37.670;-63.532;2023-01-13T02:10:06;19.10;57.60
44037;DHT22;62488;-37.670;-63.532;2023-01-13T02:12:34;19.00;57.80
44037;DHT22;62488;-37.670;-63.532;2023-01-13T02:15:15;18.90;58.20
44037;DHT22;62488;-37.670;-63.532;2023-01-13T02:23:11;18.70;59.50
44037;DHT22;62488;-37.670;-63.532;2023-01-13T02:31:35;18.50;61.60
44037;DHT22;62488;-37.670;-63.532;2023-01-13T02:34:37;18.30;62.50
44037;DHT22;62488;-37.670;-63.532;2023-01-13T02:37:06;18.30;63.50
44037;DHT22;62488;-37.670;-63.532;2023-01-13T02:39:51;18.30;64.00
44037;DHT22;62488;-37.670;-63.532;2023-01-13T02:42:44;18.30;64.60
44037;DHT22;62488;-37.670;-63.532;2023-01-13T02:46:16;18.20;65.50
44037;DHT22;62488;-37.670;-63.532;2023-01-13T02:48:49;18.10;66.70
44037;DHT22;62488;-37.670;-63.532;2023-01-13T02:51:18;17.90;67.00
44037;DHT22;62488;-37.670;-63.532;2023-01-13T02:54:12;17.80;67.70
44037;DHT22;62488;-37.670;-63.532;2023-01-13T02:56:38;17.80;68.50
44037;DHT22;62488;-37.670;-63.532;2023-01-13T02:59:06;17.70;69.10
44037;DHT22;62488;-37.670;-63.532;2023-01-13T03:01:34;17.70;70.00
44037;DHT22;62488;-37.670;-63.532;2023-01-13T03:04:11;17.60;70.40
44037;DHT22;62488;-37.670;-63.532;2023-01-13T03:07:05;17.50;71.60
44037;DHT22;62488;-37.670;-63.532;2023-01-13T03:09:49;17.50;72.30
44037;DHT22;62488;-37.670;-63.532;2023-01-13T03:13:01;17.40;73.10
44037;DHT22;62488;-37.670;-63.532;2023-01-13T03:15:38;17.30;74.20
44037;DHT22;62488;-37.670;-63.532;2023-01-13T03:18:34;17.20;74.90
44037;DHT22;62488;-37.670;-63.532;2023-01-13T03:24:20;17.20;76.50
44037;DHT22;62488;-37.670;-63.532;2023-01-13T03:27:05;17.10;77.10
44037;DHT22;62488;-37.670;-63.532;2023-01-13T03:29:46;17.10;78.00
44037;DHT22;62488;-37.670;-63.532;2023-01-13T03:32:22;16.90;79.10
44037;DHT22;62488;-37.670;-63.532;2023-01-13T03:37:49;16.80;81.20
44037;DHT22;62488;-37.670;-63.532;2023-01-13T03:40:23;16.70;82.20
44037;DHT22;62488;-37.670;-63.532;2023-01-13T03:43:01;16.70;83.10
44037;DHT22;62488;-37.670;-63.532;2023-01-13T03:45:54;16.60;83.60
44037;DHT22;62488;-37.670;-63.532;2023-01-13T03:48:26;16.60;85.30
44037;DHT22;62488;-37.670;-63.532;2023-01-13T03:50:56;16.50;85.80
44037;DHT22;62488;-37.670;-63.532;2023-01-13T03:53:34;16.50;87.20
44037;DHT22;62488;-37.670;-63.532;2023-01-13T03:56:33;16.40;88.40
44037;DHT22;62488;-37.670;-63.532;2023-01-13T03:59:04;16.30;89.20
44037;DHT22;62488;-37.670;-63.532;2023-01-13T04:10:43;16.00;91.70
44037;DHT22;62488;-37.670;-63.532;2023-01-13T04:13:13;15.90;92.00
44037;DHT22;62488;-37.670;-63.532;2023-01-13T04:15:43;15.90;92.60
44037;DHT22;62488;-37.670;-63.532;2023-01-13T04:18:23;15.90;93.00
44037;DHT22;62488;-37.670;-63.532;2023-01-13T04:20:53;15.80;93.30
44037;DHT22;62488;-37.670;-63.532;2023-01-13T04:23:21;15.70;93.50
44037;DHT22;62488;-37.670;-63.532;2023-01-13T04:25:49;15.80;93.70
44037;DHT22;62488;-37.670;-63.532;2023-01-13T04:28:17;15.70;94.10
44037;DHT22;62488;-37.670;-63.532;2023-01-13T04:30:45;15.70;94.20
44037;DHT22;62488;-37.670;-63.532;2023-01-13T04:33:13;15.70;94.50
44037;DHT22;62488;-37.670;-63.532;2023-01-13T04:35:40;15.60;94.80
44037;DHT22;62488;-37.670;-63.532;2023-01-13T04:38:10;15.60;95.20
44037;DHT22;62488;-37.670;-63.532;2023-01-13T04:40:37;15.50;95.60
44037;DHT22;62488;-37.670;-63.532;2023-01-13T04:43:04;15.40;96.10
44037;DHT22;62488;-37.670;-63.532;2023-01-13T04:45:32;15.40;96.30
44037;DHT22;62488;-37.670;-63.532;2023-01-13T04:47:59;15.40;96.70
44037;DHT22;62488;-37.670;-63.532;2023-01-13T04:50:27;15.30;97.20
44037;DHT22;62488;-37.670;-63.532;2023-01-13T04:52:54;15.20;97.40
44037;DHT22;62488;-37.670;-63.532;2023-01-13T04:55:23;15.20;97.70
44037;DHT22;62488;-37.670;-63.532;2023-01-13T04:57:50;15.10;98.00
44037;DHT22;62488;-37.670;-63.532;2023-01-13T05:00:19;15.10;98.40
44037;DHT22;62488;-37.670;-63.532;2023-01-13T05:02:50;15.10;98.70
44037;DHT22;62488;-37.670;-63.532;2023-01-13T05:05:20;15.00;99.10
44037;DHT22;62488;-37.670;-63.532;2023-01-13T05:07:48;15.00;99.40
44037;DHT22;62488;-37.670;-63.532;2023-01-13T05:10:15;15.00;99.60
44037;DHT22;62488;-37.670;-63.532;2023-01-13T05:12:42;14.90;99.90
44037;DHT22;62488;-37.670;-63.532;2023-01-13T05:15:27;14.80;99.90
44037;DHT22;62488;-37.670;-63.532;2023-01-13T05:18:12;14.80;99.90
44037;DHT22;62488;-37.670;-63.532;2023-01-13T05:20:40;14.70;99.90
44037;DHT22;62488;-37.670;-63.532;2023-01-13T05:23:08;14.70;99.90
44037;DHT22;62488;-37.670;-63.532;2023-01-13T05:25:53;14.70;99.90
44037;DHT22;62488;-37.670;-63.532;2023-01-13T05:28:23;14.80;99.90
44037;DHT22;62488;-37.670;-63.532;2023-01-13T05:30:50;14.80;99.90
44037;DHT22;62488;-37.670;-63.532;2023-01-13T05:33:18;14.80;99.90
44037;DHT22;62488;-37.670;-63.532;2023-01-13T05:35:46;14.80;99.90
44037;DHT22;62488;-37.670;-63.532;2023-01-13T05:38:14;14.80;99.90
44037;DHT22;62488;-37.670;-63.532;2023-01-13T05:40:41;14.70;99.90
44037;DHT22;62488;-37.670;-63.532;2023-01-13T05:43:27;14.60;99.90
44037;DHT22;62488;-37.670;-63.532;2023-01-13T05:48:29;14.50;99.90
44037;DHT22;62488;-37.670;-63.532;2023-01-13T05:50:57;14.40;99.90
44037;DHT22;62488;-37.670;-63.532;2023-01-13T05:53:25;14.30;99.90
44037;DHT22;62488;-37.670;-63.532;2023-01-13T05:55:55;14.30;99.90
44037;DHT22;62488;-37.670;-63.532;2023-01-13T05:58:23;14.30;99.90
44037;DHT22;62488;-37.670;-63.532;2023-01-13T06:00:51;14.30;99.90
44037;DHT22;62488;-37.670;-63.532;2023-01-13T06:03:18;14.30;99.90
44037;DHT22;62488;-37.670;-63.532;2023-01-13T06:05:46;14.20;99.90
44037;DHT22;62488;-37.670;-63.532;2023-01-13T06:08:13;14.10;99.90
44037;DHT22;62488;-37.670;-63.532;2023-01-13T06:10:41;14.10;99.90
44037;DHT22;62488;-37.670;-63.532;2023-01-13T06:13:08;14.10;99.90
44037;DHT22;62488;-37.670;-63.532;2023-01-13T06:15:35;14.10;99.90
44037;DHT22;62488;-37.670;-63.532;2023-01-13T06:18:03;14.10;99.90
44037;DHT22;62488;-37.670;-63.532;2023-01-13T06:20:31;14.10;99.90
44037;DHT22;62488;-37.670;-63.532;2023-01-13T06:22:58;14.10;99.90
44037;DHT22;62488;-37.670;-63.532;2023-01-13T06:28:01;14.10;99.90
44037;DHT22;62488;-37.670;-63.532;2023-01-13T06:30:35;14.10;99.90
44037;DHT22;62488;-37.670;-63.532;2023-01-13T06:33:08;14.00;99.90
44037;DHT22;62488;-37.670;-63.532;2023-01-13T06:35:38;14.00;99.90
44037;DHT22;62488;-37.670;-63.532;2023-01-13T06:38:11;13.90;99.90
44037;DHT22;62488;-37.670;-63.532;2023-01-13T06:40:40;13.80;99.90
44037;DHT22;62488;-37.670;-63.532;2023-01-13T06:43:08;13.70;99.90
44037;DHT22;62488;-37.670;-63.532;2023-01-13T06:45:54;13.80;99.90
44037;DHT22;62488;-37.670;-63.532;2023-01-13T06:48:26;13.70;99.90
44037;DHT22;62488;-37.670;-63.532;2023-01-13T06:50:55;13.70;99.90
44037;DHT22;62488;-37.670;-63.532;2023-01-13T06:53:22;13.70;99.90
44037;DHT22;62488;-37.670;-63.532;2023-01-13T06:56:00;13.70;99.90
44037;DHT22;62488;-37.670;-63.532;2023-01-13T06:58:28;13.60;99.90
44037;DHT22;62488;-37.670;-63.532;2023-01-13T07:00:59;13.50;99.90
44037;DHT22;62488;-37.670;-63.532;2023-01-13T07:03:27;13.60;99.90
44037;DHT22;62488;-37.670;-63.532;2023-01-13T07:05:55;13.60;99.90
44037;DHT22;62488;-37.670;-63.532;2023-01-13T07:08:23;13.50;99.90
44037;DHT22;62488;-37.670;-63.532;2023-01-13T07:10:53;13.50;99.90
44037;DHT22;62488;-37.670;-63.532;2023-01-13T07:13:20;13.40;99.90
44037;DHT22;62488;-37.670;-63.532;2023-01-13T07:16:06;13.40;99.90
44037;DHT22;62488;-37.670;-63.532;2023-01-13T07:18:34;13.40;99.90
44037;DHT22;62488;-37.670;-63.532;2023-01-13T07:21:04;13.40;99.90
44037;DHT22;62488;-37.670;-63.532;2023-01-13T07:23:39;13.40;99.90
44037;DHT22;62488;-37.670;-63.532;2023-01-13T07:26:10;13.30;99.90
44037;DHT22;62488;-37.670;-63.532;2023-01-13T07:28:45;13.40;99.90
44037;DHT22;62488;-37.670;-63.532;2023-01-13T07:31:15;13.30;99.90
44037;DHT22;62488;-37.670;-63.532;2023-01-13T07:33:43;13.30;99.90
44037;DHT22;62488;-37.670;-63.532;2023-01-13T07:36:14;13.20;99.90
44037;DHT22;62488;-37.670;-63.532;2023-01-13T07:38:44;13.20;99.90
44037;DHT22;62488;-37.670;-63.532;2023-01-13T07:41:13;13.10;99.90
44037;DHT22;62488;-37.670;-63.532;2023-01-13T07:44:03;13.10;99.90
44037;DHT22;62488;-37.670;-63.532;2023-01-13T07:46:37;13.10;99.90
44037;DHT22;62488;-37.670;-63.532;2023-01-13T07:49:04;13.00;99.90
44037;DHT22;62488;-37.670;-63.532;2023-01-13T07:51:35;13.00;99.90
44037;DHT22;62488;-37.670;-63.532;2023-01-13T07:54:03;12.90;99.90
44037;DHT22;62488;-37.670;-63.532;2023-01-13T07:56:30;13.00;99.90
44037;DHT22;62488;-37.670;-63.532;2023-01-13T07:59:06;13.00;99.90
44037;DHT22;62488;-37.670;-63.532;2023-01-13T08:01:33;13.00;99.90
44037;DHT22;62488;-37.670;-63.532;2023-01-13T08:04:02;13.00;99.90
44037;DHT22;62488;-37.670;-63.532;2023-01-13T08:06:38;13.00;99.90
44037;DHT22;62488;-37.670;-63.532;2023-01-13T08:09:07;13.10;99.90
44037;DHT22;62488;-37.670;-63.532;2023-01-13T08:11:34;13.10;99.90
44037;DHT22;62488;-37.670;-63.532;2023-01-13T08:14:01;13.00;99.90
44037;DHT22;62488;-37.670;-63.532;2023-01-13T08:16:28;13.20;99.90
44037;DHT22;62488;-37.670;-63.532;2023-01-13T08:18:58;13.10;99.90
44037;DHT22;62488;-37.670;-63.532;2023-01-13T08:21:25;13.00;99.90
44037;DHT22;62488;-37.670;-63.532;2023-01-13T08:23:52;13.00;99.90
44037;DHT22;62488;-37.670;-63.532;2023-01-13T08:26:19;12.70;99.90
44037;DHT22;62488;-37.670;-63.532;2023-01-13T08:28:53;12.70;99.90
44037;DHT22;62488;-37.670;-63.532;2023-01-13T08:31:24;12.80;99.90
44037;DHT22;62488;-37.670;-63.532;2023-01-13T08:33:51;12.80;99.90
44037;DHT22;62488;-37.670;-63.532;2023-01-13T08:36:18;12.80;99.90
44037;DHT22;62488;-37.670;-63.532;2023-01-13T08:38:45;12.80;99.90
44037;DHT22;62488;-37.670;-63.532;2023-01-13T08:41:16;12.80;99.90
44037;DHT22;62488;-37.670;-63.532;2023-01-13T08:44:07;12.70;99.90
44037;DHT22;62488;-37.670;-63.532;2023-01-13T08:46:35;12.40;99.90
44037;DHT22;62488;-37.670;-63.532;2023-01-13T08:49:04;12.50;99.90
44037;DHT22;62488;-37.670;-63.532;2023-01-13T08:51:34;12.50;99.90
44037;DHT22;62488;-37.670;-63.532;2023-01-13T08:54:02;12.50;99.90
44037;DHT22;62488;-37.670;-63.532;2023-01-13T08:56:29;12.50;99.90
44037;DHT22;62488;-37.670;-63.532;2023-01-13T08:59:00;12.40;99.90
44037;DHT22;62488;-37.670;-63.532;2023-01-13T09:01:27;12.30;99.90
44037;DHT22;62488;-37.670;-63.532;2023-01-13T09:03:54;12.40;99.90
44037;DHT22;62488;-37.670;-63.532;2023-01-13T09:06:21;12.50;99.90
44037;DHT22;62488;-37.670;-63.532;2023-01-13T09:08:48;12.50;99.90
44037;DHT22;62488;-37.670;-63.532;2023-01-13T09:11:23;12.50;99.90
44037;DHT22;62488;-37.670;-63.532;2023-01-13T09:14:10;12.50;99.90
44037;DHT22;62488;-37.670;-63.532;2023-01-13T09:16:37;12.50;99.90
44037;DHT22;62488;-37.670;-63.532;2023-01-13T09:19:04;12.60;99.90
44037;DHT22;62488;-37.670;-63.532;2023-01-13T09:21:31;12.60;99.90
44037;DHT22;62488;-37.670;-63.532;2023-01-13T09:24:02;12.60;99.90
44037;DHT22;62488;-37.670;-63.532;2023-01-13T09:26:32;12.60;99.90
44037;DHT22;62488;-37.670;-63.532;2023-01-13T09:29:00;12.60;99.90
44037;DHT22;62488;-37.670;-63.532;2023-01-13T09:31:27;12.60;99.90
44037;DHT22;62488;-37.670;-63.532;2023-01-13T09:33:55;12.70;99.90
44037;DHT22;62488;-37.670;-63.532;2023-01-13T09:36:42;12.80;99.90
44037;DHT22;62488;-37.670;-63.532;2023-01-13T09:39:09;12.90;99.90
44037;DHT22;62488;-37.670;-63.532;2023-01-13T09:41:44;13.00;99.90
44037;DHT22;62488;-37.670;-63.532;2023-01-13T09:44:47;13.10;99.90
44037;DHT22;62488;-37.670;-63.532;2023-01-13T09:47:37;13.10;99.90
44037;DHT22;62488;-37.670;-63.532;2023-01-13T09:53:17;13.20;99.90
44037;DHT22;62488;-37.670;-63.532;2023-01-13T09:55:45;13.30;99.90
44037;DHT22;62488;-37.670;-63.532;2023-01-13T09:58:16;13.80;99.90
44037;DHT22;62488;-37.670;-63.532;2023-01-13T10:03:46;14.10;99.90
44037;DHT22;62488;-37.670;-63.532;2023-01-13T10:06:23;14.30;99.90
44037;DHT22;62488;-37.670;-63.532;2023-01-13T10:09:00;14.40;99.90
44037;DHT22;62488;-37.670;-63.532;2023-01-13T10:11:37;14.60;99.90
44037;DHT22;62488;-37.670;-63.532;2023-01-13T10:14:50;14.80;99.90
44037;DHT22;62488;-37.670;-63.532;2023-01-13T10:17:36;15.00;99.90
44037;DHT22;62488;-37.670;-63.532;2023-01-13T10:20:21;15.20;99.90
44037;DHT22;62488;-37.670;-63.532;2023-01-13T10:28:23;15.50;99.90
44037;DHT22;62488;-37.670;-63.532;2023-01-13T10:30:53;15.50;99.90
44037;DHT22;62488;-37.670;-63.532;2023-01-13T10:33:25;15.70;99.90
44037;DHT22;62488;-37.670;-63.532;2023-01-13T10:41:01;16.30;99.90
44037;DHT22;62488;-37.670;-63.532;2023-01-13T10:43:29;16.50;99.90
44037;DHT22;62488;-37.670;-63.532;2023-01-13T10:46:03;16.60;99.90
44037;DHT22;62488;-37.670;-63.532;2023-01-13T10:48:40;16.90;99.90
44037;DHT22;62488;-37.670;-63.532;2023-01-13T10:53:58;17.40;99.90
44037;DHT22;62488;-37.670;-63.532;2023-01-13T10:56:30;17.50;99.90
44037;DHT22;62488;-37.670;-63.532;2023-01-13T10:59:20;17.80;99.20
44037;DHT22;62488;-37.670;-63.532;2023-01-13T11:04:41;17.80;98.20
44037;DHT22;62488;-37.670;-63.532;2023-01-13T11:12:33;18.50;96.90
44037;DHT22;62488;-37.670;-63.532;2023-01-13T11:15:07;18.50;96.70
44037;DHT22;62488;-37.670;-63.532;2023-01-13T11:17:41;18.70;97.00
44037;DHT22;62488;-37.670;-63.532;2023-01-13T11:20:29;18.90;95.90
44037;DHT22;62488;-37.670;-63.532;2023-01-13T11:23:06;18.90;95.10
44037;DHT22;62488;-37.670;-63.532;2023-01-13T11:25:43;19.10;95.30
44037;DHT22;62488;-37.670;-63.532;2023-01-13T11:28:40;19.30;95.30
44037;DHT22;62488;-37.670;-63.532;2023-01-13T11:31:36;19.40;95.10
44037;DHT22;62488;-37.670;-63.532;2023-01-13T11:34:28;19.70;94.00
44037;DHT22;62488;-37.670;-63.532;2023-01-13T11:37:06;20.10;93.30
44037;DHT22;62488;-37.670;-63.532;2023-01-13T11:42:48;20.10;92.80
44037;DHT22;62488;-37.670;-63.532;2023-01-13T11:45:50;20.30;92.00
44037;DHT22;62488;-37.670;-63.532;2023-01-13T11:48:21;20.30;91.60
44037;DHT22;62488;-37.670;-63.532;2023-01-13T11:57:01;20.80;87.30
44037;DHT22;62488;-37.670;-63.532;2023-01-13T12:00:01;20.80;86.80
44037;DHT22;62488;-37.670;-63.532;2023-01-13T12:08:00;21.20;84.30
44037;DHT22;62488;-37.670;-63.532;2023-01-13T12:21:21;22.30;77.70
44037;DHT22;62488;-37.670;-63.532;2023-01-13T12:27:17;22.00;74.90
44037;DHT22;62488;-37.670;-63.532;2023-01-13T12:29:38;22.70;73.80
44037;DHT22;62488;-37.670;-63.532;2023-01-13T12:32:16;22.90;69.70
44037;DHT22;62488;-37.670;-63.532;2023-01-13T12:35:18;23.10;72.20
44037;DHT22;62488;-37.670;-63.532;2023-01-13T12:43:33;23.40;67.00
44037;DHT22;62488;-37.670;-63.532;2023-01-13T12:51:22;23.70;66.50
44037;DHT22;62488;-37.670;-63.532;2023-01-13T12:53:50;24.20;64.10
44037;DHT22;62488;-37.670;-63.532;2023-01-13T12:56:40;23.90;61.40
44037;DHT22;62488;-37.670;-63.532;2023-01-13T13:01:46;24.00;60.60
44037;DHT22;62488;-37.670;-63.532;2023-01-13T13:04:17;24.40;61.90
44037;DHT22;62488;-37.670;-63.532;2023-01-13T13:06:55;25.00;59.00
44037;DHT22;62488;-37.670;-63.532;2023-01-13T13:09:52;25.30;58.90
44037;DHT22;62488;-37.670;-63.532;2023-01-13T13:15:34;25.20;57.30
44037;DHT22;62488;-37.670;-63.532;2023-01-13T13:34:56;26.50;53.50
44037;DHT22;62488;-37.670;-63.532;2023-01-13T13:40:43;26.70;51.10
44037;DHT22;62488;-37.670;-63.532;2023-01-13T13:43:29;26.30;51.90
44037;DHT22;62488;-37.670;-63.532;2023-01-13T13:46:27;26.30;51.80
44037;DHT22;62488;-37.670;-63.532;2023-01-13T13:49:21;26.20;49.30
44037;DHT22;62488;-37.670;-63.532;2023-01-13T13:51:57;27.10;49.50
44037;DHT22;62488;-37.670;-63.532;2023-01-13T13:54:25;27.40;49.90
44037;DHT22;62488;-37.670;-63.532;2023-01-13T13:56:53;27.50;48.70
44037;DHT22;62488;-37.670;-63.532;2023-01-13T13:59:25;27.70;46.40
44037;DHT22;62488;-37.670;-63.532;2023-01-13T14:02:00;27.80;48.00
44037;DHT22;62488;-37.670;-63.532;2023-01-13T14:04:31;27.80;47.60
44037;DHT22;62488;-37.670;-63.532;2023-01-13T14:07:00;28.10;47.50
44037;DHT22;62488;-37.670;-63.532;2023-01-13T14:09:40;28.40;47.30
44037;DHT22;62488;-37.670;-63.532;2023-01-13T14:12:23;28.40;45.50
44037;DHT22;62488;-37.670;-63.532;2023-01-13T14:14:51;28.50;46.10
44037;DHT22;62488;-37.670;-63.532;2023-01-13T14:17:23;28.70;45.00
44037;DHT22;62488;-37.670;-63.532;2023-01-13T14:20:13;28.90;45.00
44037;DHT22;62488;-37.670;-63.532;2023-01-13T14:22:50;28.90;44.20
44037;DHT22;62488;-37.670;-63.532;2023-01-13T14:25:36;28.90;44.10
44037;DHT22;62488;-37.670;-63.532;2023-01-13T14:28:33;28.30;44.00
44037;DHT22;62488;-37.670;-63.532;2023-01-13T14:31:01;28.50;44.50
44037;DHT22;62488;-37.670;-63.532;2023-01-13T14:33:53;28.70;44.30
44037;DHT22;62488;-37.670;-63.532;2023-01-13T14:44:25;28.90;44.30
44037;DHT22;62488;-37.670;-63.532;2023-01-13T14:46:58;28.80;43.60
44037;DHT22;62488;-37.670;-63.532;2023-01-13T14:49:37;29.30;43.20
44037;DHT22;62488;-37.670;-63.532;2023-01-13T14:54:45;29.20;43.30
44037;DHT22;62488;-37.670;-63.532;2023-01-13T14:57:23;29.00;42.20
44037;DHT22;62488;-37.670;-63.532;2023-01-13T15:05:28;28.90;43.00
44037;DHT22;62488;-37.670;-63.532;2023-01-13T15:15:51;28.50;43.90
44037;DHT22;62488;-37.670;-63.532;2023-01-13T15:18:18;28.60;44.10
44037;DHT22;62488;-37.670;-63.532;2023-01-13T15:20:45;28.40;43.00
44037;DHT22;62488;-37.670;-63.532;2023-01-13T15:23:12;28.80;44.70
44037;DHT22;62488;-37.670;-63.532;2023-01-13T15:25:41;29.60;42.90
44037;DHT22;62488;-37.670;-63.532;2023-01-13T15:28:22;29.90;42.00
44037;DHT22;62488;-37.670;-63.532;2023-01-13T15:30:50;29.90;42.00
44037;DHT22;62488;-37.670;-63.532;2023-01-13T15:33:19;30.30;42.10
44037;DHT22;62488;-37.670;-63.532;2023-01-13T15:35:51;30.60;41.00
44037;DHT22;62488;-37.670;-63.532;2023-01-13T15:38:22;30.60;41.30
44037;DHT22;62488;-37.670;-63.532;2023-01-13T15:40:51;30.10;41.00
44037;DHT22;62488;-37.670;-63.532;2023-01-13T15:43:22;30.60;41.60
44037;DHT22;62488;-37.670;-63.532;2023-01-13T15:46:15;30.70;40.60
44037;DHT22;62488;-37.670;-63.532;2023-01-13T15:52:02;31.10;39.70
44037;DHT22;62488;-37.670;-63.532;2023-01-13T15:54:29;30.80;41.20
44037;DHT22;62488;-37.670;-63.532;2023-01-13T15:56:56;31.30;40.80
44037;DHT22;62488;-37.670;-63.532;2023-01-13T15:59:26;31.50;39.80
44037;DHT22;62488;-37.670;-63.532;2023-01-13T16:01:53;31.40;41.10
44037;DHT22;62488;-37.670;-63.532;2023-01-13T16:04:21;31.10;40.40
44037;DHT22;62488;-37.670;-63.532;2023-01-13T16:06:48;31.00;40.10
44037;DHT22;62488;-37.670;-63.532;2023-01-13T16:09:15;31.30;39.90
44037;DHT22;62488;-37.670;-63.532;2023-01-13T16:11:42;31.10;40.30
44037;DHT22;62488;-37.670;-63.532;2023-01-13T16:14:09;31.60;40.70
44037;DHT22;62488;-37.670;-63.532;2023-01-13T16:16:36;31.30;39.00
44037;DHT22;62488;-37.670;-63.532;2023-01-13T16:19:03;31.30;39.40
44037;DHT22;62488;-37.670;-63.532;2023-01-13T16:21:30;31.00;39.20
44037;DHT22;62488;-37.670;-63.532;2023-01-13T16:23:57;31.70;41.20
44037;DHT22;62488;-37.670;-63.532;2023-01-13T16:26:26;31.40;38.70
44037;DHT22;62488;-37.670;-63.532;2023-01-13T16:28:55;31.00;40.00
44037;DHT22;62488;-37.670;-63.532;2023-01-13T16:31:28;31.10;39.60
44037;DHT22;62488;-37.670;-63.532;2023-01-13T16:34:00;30.40;39.90
44037;DHT22;62488;-37.670;-63.532;2023-01-13T16:36:29;29.20;41.90
44037;DHT22;62488;-37.670;-63.532;2023-01-13T16:38:56;29.70;41.00
44037;DHT22;62488;-37.670;-63.532;2023-01-13T16:41:23;30.00;40.80
44037;DHT22;62488;-37.670;-63.532;2023-01-13T16:43:51;30.80;40.30
44037;DHT22;62488;-37.670;-63.532;2023-01-13T16:46:26;31.70;39.90
44037;DHT22;62488;-37.670;-63.532;2023-01-13T16:48:56;31.80;38.70
44037;DHT22;62488;-37.670;-63.532;2023-01-13T16:51:24;31.90;38.60
44037;DHT22;62488;-37.670;-63.532;2023-01-13T16:53:51;32.20;38.70
44037;DHT22;62488;-37.670;-63.532;2023-01-13T16:56:27;32.70;39.20
44037;DHT22;62488;-37.670;-63.532;2023-01-13T16:58:56;32.10;38.40
44037;DHT22;62488;-37.670;-63.532;2023-01-13T17:01:31;31.80;39.10
44037;DHT22;62488;-37.670;-63.532;2023-01-13T17:03:59;32.30;37.50
44037;DHT22;62488;-37.670;-63.532;2023-01-13T17:06:52;32.90;38.70
44037;DHT22;62488;-37.670;-63.532;2023-01-13T17:09:22;33.30;37.60
44037;DHT22;62488;-37.670;-63.532;2023-01-13T17:11:50;33.00;38.20
44037;DHT22;62488;-37.670;-63.532;2023-01-13T17:14:18;32.30;36.60
44037;DHT22;62488;-37.670;-63.532;2023-01-13T17:16:50;30.90;38.40
44037;DHT22;62488;-37.670;-63.532;2023-01-13T17:19:17;30.40;39.10
44037;DHT22;62488;-37.670;-63.532;2023-01-13T17:21:44;30.90;39.10
44037;DHT22;62488;-37.670;-63.532;2023-01-13T17:24:13;31.40;38.60
44037;DHT22;62488;-37.670;-63.532;2023-01-13T17:26:47;31.40;38.50
44037;DHT22;62488;-37.670;-63.532;2023-01-13T17:29:20;32.10;38.10
44037;DHT22;62488;-37.670;-63.532;2023-01-13T17:31:48;31.60;37.40
44037;DHT22;62488;-37.670;-63.532;2023-01-13T17:34:15;31.90;38.80
44037;DHT22;62488;-37.670;-63.532;2023-01-13T17:36:43;32.40;37.50
44037;DHT22;62488;-37.670;-63.532;2023-01-13T17:39:15;32.50;36.90
44037;DHT22;62488;-37.670;-63.532;2023-01-13T17:41:43;32.60;37.30
44037;DHT22;62488;-37.670;-63.532;2023-01-13T17:44:19;32.30;36.40
44037;DHT22;62488;-37.670;-63.532;2023-01-13T17:46:47;32.60;37.70
44037;DHT22;62488;-37.670;-63.532;2023-01-13T17:49:16;32.30;36.90
44037;DHT22;62488;-37.670;-63.532;2023-01-13T17:51:43;32.40;36.90
44037;DHT22;62488;-37.670;-63.532;2023-01-13T17:54:14;32.60;36.40
44037;DHT22;62488;-37.670;-63.532;2023-01-13T17:56:41;32.50;36.50
44037;DHT22;62488;-37.670;-63.532;2023-01-13T17:59:11;32.00;35.80
44037;DHT22;62488;-37.670;-63.532;2023-01-13T18:01:38;31.90;36.40